Time;durP1;ratioP1;P1;durP2;ratioP2;P2;SDS_P1;SDS_P2;PMS_P1;PMS_P2;Temp;Humidity;BMP_temperature;BMP_pressure;BME280_temperature;BME280_humidity;BME280_pressure;Samples;Min_cycle;Max_cycle;Signal;HPM_P1;HPM_P2
2022/09/23 00:01:18;;;;;;;5.20;3.50;;;8.60;99.90;;;;;;6312962;22;20427;-64
2022/09/23 00:03:48;;;;;;;5.30;3.93;;;8.60;99.90;;;;;;6312884;22;20421;-64
2022/09/23 00:06:17;;;;;;;4.70;4.20;;;8.50;99.90;;;;;;6312136;22;20502;-63
2022/09/23 00:08:48;;;;;;;4.77;4.30;;;8.50;99.90;;;;;;6312783;22;20762;-64
2022/09/23 00:11:17;;;;;;;8.23;4.10;;;8.50;99.90;;;;;;6313408;22;20749;-64
2022/09/23 00:13:47;;;;;;;4.70;4.30;;;8.50;99.90;;;;;;6312800;22;20420;-64
2022/09/23 00:16:17;;;;;;;4.70;3.80;;;8.60;99.90;;;;;;6311610;22;20412;-64
2022/09/23 00:18:44;;;;;;;11.17;3.83;;;8.60;99.90;;;;;;6313153;22;20416;-64
2022/09/23 00:21:13;;;;;;;4.73;3.87;;;8.50;99.90;;;;;;6312847;22;20422;-64
2022/09/23 00:23:42;;;;;;;5.70;4.30;;;8.60;1.00;;;;;;6312176;22;20438;-64
2022/09/23 00:26:12;;;;;;;3.53;3.20;;;8.70;99.90;;;;;;6311774;22;20451;-64
2022/09/23 00:28:43;;;;;;;6.60;3.47;;;8.70;99.90;;;;;;6312695;22;20416;-64
2022/09/23 00:31:13;;;;;;;4.30;3.70;;;8.70;99.90;;;;;;6312593;22;20849;-64
2022/09/23 00:33:40;;;;;;;5.40;3.83;;;8.70;99.90;;;;;;6312404;22;20421;-64
2022/09/23 00:36:11;;;;;;;3.53;3.23;;;8.70;99.90;;;;;;6313036;22;20682;-64
2022/09/23 00:38:39;;;;;;;5.47;3.60;;;8.70;99.90;;;;;;6312542;22;20723;-64
2022/09/23 00:41:13;;;;;;;4.53;3.80;;;8.70;99.90;;;;;;6311966;22;20441;-64
2022/09/23 00:43:43;;;;;;;4.40;3.73;;;8.70;99.90;;;;;;6312223;22;20415;-64
2022/09/23 00:46:13;;;;;;;4.47;3.50;;;8.80;99.90;;;;;;6312031;22;20444;-64
2022/09/23 00:48:42;;;;;;;4.93;3.60;;;8.70;99.90;;;;;;6310972;22;20877;-64
2022/09/23 00:51:13;;;;;;;5.87;3.70;;;8.70;99.90;;;;;;6312070;22;20438;-64
2022/09/23 00:53:41;;;;;;;4.90;3.50;;;8.70;99.90;;;;;;6311716;22;20420;-64
2022/09/23 00:56:12;;;;;;;3.73;3.37;;;8.70;99.90;;;;;;6313511;22;20404;-64
2022/09/23 00:58:42;;;;;;;4.20;3.60;;;8.80;99.90;;;;;;6312356;22;20421;-64
2022/09/23 01:01:12;;;;;;;4.30;3.50;;;8.80;99.90;;;;;;6311801;22;20391;-64
2022/09/23 01:03:41;;;;;;;4.60;3.60;;;8.80;99.90;;;;;;6312262;22;20412;-64
2022/09/23 01:06:09;;;;;;;3.70;3.23;;;8.90;99.90;;;;;;6313070;22;20774;-64
2022/09/23 01:08:37;;;;;;;5.33;3.13;;;8.80;99.90;;;;;;6312076;22;20417;-64
2022/09/23 01:11:16;;;;;;;3.97;3.57;;;8.80;99.90;;;;;;6312435;22;20539;-64
2022/09/23 01:13:54;;;;;;;5.97;3.57;;;8.90;99.90;;;;;;6312390;22;20440;-64
2022/09/23 01:16:29;;;;;;;4.07;3.00;;;8.80;99.90;;;;;;6311600;22;20707;-64
2022/09/23 01:19:07;;;;;;;5.80;3.57;;;8.80;99.90;;;;;;6311769;22;20390;-64
2022/09/23 01:21:46;;;;;;;8.40;4.10;;;8.70;99.90;;;;;;6312562;22;20416;-64
2022/09/23 01:24:40;;;;;;;4.70;3.43;;;8.70;99.90;;;;;;6312432;22;20420;-64
2022/09/23 01:27:19;;;;;;;6.20;3.63;;;8.70;99.90;;;;;;6312597;22;20451;-64
2022/09/23 01:30:33;;;;;;;6.33;3.43;;;8.70;99.90;;;;;;6312685;22;20485;-64
2022/09/23 01:33:10;;;;;;;3.63;3.00;;;8.70;99.90;;;;;;6312396;22;20412;-64
2022/09/23 01:36:12;;;;;;;5.07;3.43;;;8.70;99.90;;;;;;6311723;22;20458;-64
2022/09/23 01:38:46;;;;;;;3.50;3.20;;;8.70;99.90;;;;;;6304288;22;20424;-64
2022/09/23 01:41:37;;;;;;;6.50;3.40;;;8.80;99.90;;;;;;6311739;22;20744;-64
2022/09/23 01:44:10;;;;;;;3.90;3.50;;;8.90;99.90;;;;;;6312144;22;20448;-64
2022/09/23 01:46:44;;;;;;;3.73;3.30;;;9.00;99.90;;;;;;6311960;22;20885;-64
2022/09/23 01:49:18;;;;;;;3.77;3.47;;;9.00;99.90;;;;;;6312230;22;20417;-64
2022/09/23 01:51:49;;;;;;;5.70;3.83;;;8.90;99.90;;;;;;6311886;22;20466;-64
2022/09/23 01:54:22;;;;;;;4.40;3.53;;;8.80;99.90;;;;;;6312308;22;20416;-64
2022/09/23 01:57:00;;;;;;;4.10;3.23;;;8.70;99.90;;;;;;6311558;22;20503;-64
2022/09/23 01:59:34;;;;;;;4.00;3.33;;;8.80;99.90;;;;;;6312302;22;20773;-64
2022/09/23 02:02:07;;;;;;;3.50;3.03;;;8.70;99.90;;;;;;6311823;22;20420;-64
2022/09/23 02:04:38;;;;;;;4.03;2.93;;;8.70;99.90;;;;;;6311773;22;20435;-64
2022/09/23 02:07:13;;;;;;;3.50;3.20;;;8.70;99.90;;;;;;6311559;22;20513;-64
2022/09/23 02:09:48;;;;;;;4.70;3.27;;;8.70;99.90;;;;;;6311258;22;20451;-64
2022/09/23 02:12:19;;;;;;;5.00;3.73;;;8.60;99.90;;;;;;6311912;22;20434;-64
2022/09/23 02:14:50;;;;;;;4.47;3.17;;;8.70;99.90;;;;;;6312149;22;20827;-64
2022/09/23 02:17:25;;;;;;;3.93;3.63;;;8.70;99.90;;;;;;6312204;22;20804;-64
2022/09/23 02:19:57;;;;;;;4.23;3.00;;;8.70;99.90;;;;;;6311701;22;20416;-64
2022/09/23 02:22:28;;;;;;;10.43;3.10;;;8.70;99.90;;;;;;6311762;22;20444;-63
2022/09/23 02:24:57;;;;;;;3.53;3.20;;;8.70;99.90;;;;;;6311716;22;20416;-64
2022/09/23 02:27:30;;;;;;;5.00;3.10;;;8.80;99.90;;;;;;6310754;22;20444;-64
2022/09/23 02:30:12;;;;;;;3.77;3.47;;;8.80;99.90;;;;;;6309585;22;20502;-64
2022/09/23 02:32:49;;;;;;;3.80;3.03;;;8.80;99.90;;;;;;6312119;22;20873;-64
2022/09/23 02:35:24;;;;;;;3.93;3.13;;;8.80;99.90;;;;;;6311793;22;20542;-64
2022/09/23 02:38:02;;;;;;;5.40;3.63;;;8.80;99.90;;;;;;6311193;22;20420;-64
2022/09/23 02:40:37;;;;;;;3.30;2.83;;;8.80;99.90;;;;;;6311796;22;20825;-64
2022/09/23 02:43:09;;;;;;;4.23;2.90;;;8.80;99.90;;;;;;6312090;22;20412;-64
2022/09/23 02:45:37;;;;;;;3.80;3.40;;;8.80;99.90;;;;;;6311201;22;20765;-64
2022/09/23 02:48:09;;;;;;;8.10;3.37;;;8.80;99.90;;;;;;6311189;22;20630;-64
2022/09/23 02:50:39;;;;;;;4.97;3.20;;;8.80;99.90;;;;;;6311809;22;20430;-64
2022/09/23 02:53:08;;;;;;;5.00;3.80;;;8.70;99.90;;;;;;6312000;22;20425;-64
2022/09/23 02:55:38;;;;;;;3.83;3.43;;;8.70;99.90;;;;;;6311633;22;20438;-64
2022/09/23 02:58:05;;;;;;;3.93;3.20;;;8.70;99.90;;;;;;6311902;22;20420;-64
2022/09/23 03:00:43;;;;;;;6.13;3.60;;;8.70;99.90;;;;;;6311257;22;20528;-64
2022/09/23 03:03:23;;;;;;;5.10;3.43;;;8.70;99.90;;;;;;6310663;22;20482;-64
2022/09/23 03:05:56;;;;;;;5.97;3.30;;;8.70;99.90;;;;;;6310923;22;20394;-64
2022/09/23 03:08:36;;;;;;;3.47;3.17;;;8.60;99.90;;;;;;6310670;22;20490;-64
2022/09/23 03:11:07;;;;;;;3.33;2.97;;;8.60;99.90;;;;;;6311252;22;20452;-64
2022/09/23 03:13:49;;;;;;;5.27;3.53;;;8.60;99.90;;;;;;6310582;22;20421;-64
2022/09/23 03:16:27;;;;;;;9.13;4.20;;;8.60;99.90;;;;;;6311163;22;20830;-64
2022/09/23 03:19:02;;;;;;;4.23;3.60;;;8.50;99.90;;;;;;6312072;22;20418;-64
2022/09/23 03:21:35;;;;;;;4.30;3.80;;;8.50;99.90;;;;;;6310984;22;20422;-64
2022/09/23 03:24:07;;;;;;;7.17;4.80;;;8.60;99.90;;;;;;6311183;22;20420;-64
2022/09/23 03:26:39;;;;;;;4.53;3.40;;;8.50;99.90;;;;;;6312028;22;20757;-64
2022/09/23 03:29:10;;;;;;;3.80;3.50;;;8.40;99.90;;;;;;6311290;22;20418;-64
2022/09/23 03:31:41;;;;;;;5.13;3.47;;;8.50;99.90;;;;;;6311053;22;20438;-64
2022/09/23 03:34:23;;;;;;;4.47;4.07;;;8.60;99.90;;;;;;6311159;22;20446;-64
2022/09/23 03:36:58;;;;;;;5.27;3.90;;;8.60;99.90;;;;;;6311446;22;20408;-64
2022/09/23 03:39:31;;;;;;;4.87;4.07;;;8.50;99.90;;;;;;6310741;22;20435;-64
2022/09/23 03:42:02;;;;;;;4.20;3.60;;;8.50;99.90;;;;;;6310781;22;20511;-64
2022/09/23 03:44:30;;;;;;;4.10;3.43;;;8.50;99.90;;;;;;6310800;22;20421;-64
2022/09/23 03:47:03;;;;;;;4.40;3.33;;;8.60;99.90;;;;;;6311119;22;20728;-64
2022/09/23 03:49:38;;;;;;;4.60;3.57;;;8.60;99.90;;;;;;6311354;22;20424;-64
2022/09/23 03:52:08;;;;;;;6.07;3.40;;;8.60;99.90;;;;;;6311019;22;20720;-64
2022/09/23 03:54:35;;;;;;;3.97;3.10;;;8.50;99.90;;;;;;6310359;22;20419;-64
2022/09/23 03:57:03;;;;;;;6.10;4.07;;;8.50;99.90;;;;;;6310403;22;20416;-64
2022/09/23 03:59:31;;;;;;;4.10;3.70;;;8.40;99.90;;;;;;6310794;22;20430;-65
2022/09/23 04:02:02;;;;;;;6.10;4.40;;;8.30;99.90;;;;;;6310356;22;20507;-64
2022/09/23 04:04:33;;;;;;;4.50;4.10;;;8.30;99.90;;;;;;6310682;22;20469;-64
2022/09/23 04:07:00;;;;;;;4.87;4.00;;;8.30;99.90;;;;;;6310903;22;20946;-64
2022/09/23 04:09:28;;;;;;;7.00;3.80;;;8.20;99.90;;;;;;6310414;22;20416;-65
2022/09/23 04:11:55;;;;;;;4.60;3.53;;;8.30;99.90;;;;;;6310421;22;20463;-64
2022/09/23 04:14:24;;;;;;;5.23;3.47;;;8.20;1.00;;;;;;6310291;22;20701;-64
2022/09/23 04:16:55;;;;;;;4.73;4.23;;;8.20;1.00;;;;;;6311020;22;20879;-65
2022/09/23 04:19:22;;;;;;;4.67;4.00;;;8.20;99.90;;;;;;6310272;22;20499;-64
2022/09/23 04:21:51;;;;;;;4.87;4.10;;;8.20;99.90;;;;;;6310978;22;20455;-64
2022/09/23 04:24:18;;;;;;;4.50;4.10;;;8.10;99.90;;;;;;6312304;22;20401;-64
2022/09/23 04:26:45;;;;;;;5.13;4.23;;;8.10;99.90;;;;;;6311295;22;20881;-64
2022/09/23 04:29:12;;;;;;;5.37;4.50;;;8.10;1.00;;;;;;6311228;22;20535;-64
2022/09/23 04:31:40;;;;;;;4.80;3.90;;;8.10;1.00;;;;;;6311022;22;20459;-64
2022/09/23 04:34:07;;;;;;;4.63;4.17;;;8.10;1.00;;;;;;6310773;22;20803;-64
2022/09/23 04:36:37;;;;;;;5.07;4.57;;;8.00;1.00;;;;;;6311145;22;20416;-64
2022/09/23 04:39:06;;;;;;;5.43;4.20;;;8.20;1.00;;;;;;6310848;22;20444;-65
2022/09/23 04:41:35;;;;;;;5.87;4.40;;;8.10;99.90;;;;;;6311102;22;20520;-64
2022/09/23 04:44:04;;;;;;;6.90;4.10;;;8.10;99.90;;;;;;6311158;22;20394;-65
2022/09/23 04:46:31;;;;;;;4.93;4.07;;;8.00;1.00;;;;;;6310852;22;20865;-64
2022/09/23 04:48:59;;;;;;;7.60;5.83;;;7.90;1.00;;;;;;6310817;22;20487;-64
2022/09/23 04:51:27;;;;;;;10.50;9.57;;;7.80;1.00;;;;;;6310647;22;20421;-64
2022/09/23 04:53:56;;;;;;;9.07;8.17;;;7.80;1.00;;;;;;6310916;22;20463;-64
2022/09/23 04:56:31;;;;;;;8.77;7.17;;;7.90;1.00;;;;;;6311659;22;20416;-65
2022/09/23 04:59:00;;;;;;;11.67;6.40;;;7.90;1.00;;;;;;6310562;22;20518;-64
2022/09/23 05:01:29;;;;;;;6.70;5.83;;;7.90;1.00;;;;;;6311038;22;20858;-64
2022/09/23 05:04:01;;;;;;;5.93;4.13;;;8.00;1.00;;;;;;6311147;22;20846;-64
2022/09/23 05:06:33;;;;;;;4.90;4.40;;;7.90;1.00;;;;;;6309922;22;20523;-65
2022/09/23 05:09:04;;;;;;;5.47;4.97;;;7.90;1.00;;;;;;6309521;22;20448;-64
2022/09/23 05:11:34;;;;;;;4.67;3.73;;;8.00;1.00;;;;;;6308439;22;20416;-64
2022/09/23 05:14:01;;;;;;;4.47;4.07;;;8.00;99.90;;;;;;6309930;22;20465;-65
2022/09/23 05:16:28;;;;;;;5.20;4.67;;;7.90;99.90;;;;;;6311264;22;20440;-64
2022/09/23 05:18:56;;;;;;;3.97;3.63;;;8.00;1.00;;;;;;6310383;22;20415;-64
2022/09/23 05:21:25;;;;;;;5.83;5.10;;;7.90;1.00;;;;;;6310404;22;20767;-65
2022/09/23 05:23:57;;;;;;;6.80;5.10;;;7.90;1.00;;;;;;6310020;22;20430;-65
2022/09/23 05:26:26;;;;;;;6.63;4.27;;;7.90;1.00;;;;;;6310969;22;20420;-65
2022/09/23 05:28:55;;;;;;;9.00;4.80;;;7.90;1.00;;;;;;6310441;22;20480;-65
2022/09/23 05:31:25;;;;;;;4.80;4.00;;;7.80;1.00;;;;;;6309645;22;20713;-65
2022/09/23 05:33:54;;;;;;;5.97;5.37;;;7.80;1.00;;;;;;6310409;22;20420;-65
2022/09/23 05:36:26;;;;;;;10.33;8.57;;;7.80;1.00;;;;;;6310074;22;20495;-64
2022/09/23 05:38:55;;;;;;;39.63;33.53;;;7.80;1.00;;;;;;6309824;22;20419;-64
2022/09/23 05:41:24;;;;;;;10.00;8.10;;;7.80;1.00;;;;;;6309812;22;20402;-63
2022/09/23 05:43:58;;;;;;;13.00;10.53;;;7.90;1.00;;;;;;6307389;22;20452;-63
2022/09/23 05:46:28;;;;;;;6.33;5.73;;;8.00;1.00;;;;;;6309086;22;20401;-62
2022/09/23 05:48:56;;;;;;;7.97;4.57;;;8.10;1.00;;;;;;6309456;22;20506;-63
2022/09/23 05:51:25;;;;;;;7.73;6.30;;;8.20;1.00;;;;;;6307311;22;20478;-62
2022/09/23 05:53:54;;;;;;;6.70;5.93;;;8.30;1.00;;;;;;6309119;22;20432;-63
2022/09/23 05:56:23;;;;;;;7.13;5.07;;;8.30;1.00;;;;;;6309757;22;20783;-63
2022/09/23 05:58:51;;;;;;;7.13;5.03;;;8.30;1.00;;;;;;6310386;22;20416;-63
2022/09/23 06:01:23;;;;;;;5.30;4.80;;;8.40;99.90;;;;;;6310311;22;20452;-63
2022/09/23 06:03:51;;;;;;;5.37;4.83;;;8.40;99.90;;;;;;6309761;22;20398;-63
2022/09/23 06:06:24;;;;;;;4.50;4.10;;;8.40;99.90;;;;;;6310341;22;20507;-63
2022/09/23 06:08:52;;;;;;;5.40;4.40;;;8.60;99.90;;;;;;6310974;22;20484;-64
2022/09/23 06:11:20;;;;;;;6.27;4.53;;;8.70;99.90;;;;;;6310536;22;20416;-63
2022/09/23 06:13:49;;;;;;;4.97;4.23;;;8.90;99.90;;;;;;6310352;22;20419;-63
2022/09/23 06:16:16;;;;;;;5.13;4.43;;;9.00;99.90;;;;;;6310381;22;20764;-63
2022/09/23 06:18:46;;;;;;;4.30;3.67;;;9.20;99.90;;;;;;6310383;22;20514;-63
2022/09/23 06:21:17;;;;;;;5.30;4.60;;;9.40;99.90;;;;;;6310441;22;20443;-63
2022/09/23 06:23:48;;;;;;;4.03;3.63;;;9.50;99.90;;;;;;6309560;22;20827;-62
2022/09/23 06:26:16;;;;;;;6.77;4.23;;;9.50;99.90;;;;;;6309591;22;20417;-63
2022/09/23 06:28:45;;;;;;;7.20;4.37;;;9.60;99.90;;;;;;6310648;22;20490;-63
2022/09/23 06:31:17;;;;;;;4.17;3.77;;;9.70;99.90;;;;;;6310019;22;20857;-63
2022/09/23 06:33:51;;;;;;;4.80;3.80;;;9.80;99.90;;;;;;6309461;22;20463;-63
2022/09/23 06:36:18;;;;;;;4.63;4.23;;;9.90;99.90;;;;;;6309412;22;20419;-63
2022/09/23 06:38:48;;;;;;;5.40;3.70;;;10.00;99.90;;;;;;6308721;22;20478;-63
2022/09/23 06:41:15;;;;;;;6.40;4.10;;;10.00;99.90;;;;;;6308745;22;20480;-63
2022/09/23 06:43:42;;;;;;;4.80;4.30;;;10.00;99.90;;;;;;6308312;22;20467;-63
2022/09/23 06:46:15;;;;;;;4.43;4.00;;;10.00;99.90;;;;;;6308009;22;20417;-63
2022/09/23 06:48:43;;;;;;;6.17;3.60;;;10.20;99.90;;;;;;6307708;22;20443;-62
2022/09/23 06:51:18;;;;;;;4.30;3.90;;;10.60;99.90;;;;;;6309918;22;20845;-63
2022/09/23 06:53:47;;;;;;;4.40;4.00;;;11.00;99.90;;;;;;6309383;22;20785;-62
2022/09/23 06:56:14;;;;;;;4.40;3.50;;;11.20;99.90;;;;;;6309237;22;20395;-63
2022/09/23 06:58:42;;;;;;;4.23;3.77;;;11.50;99.90;;;;;;6310135;22;20450;-63
2022/09/23 07:01:11;;;;;;;4.93;4.00;;;11.50;99.90;;;;;;6308995;22;20456;-63
2022/09/23 07:03:39;;;;;;;4.17;3.70;;;11.70;99.90;;;;;;6308240;22;20671;-63
2022/09/23 07:06:07;;;;;;;7.33;3.90;;;11.90;99.90;;;;;;6306797;22;20456;-62
2022/09/23 07:08:36;;;;;;;4.40;3.07;;;12.00;99.90;;;;;;6308407;22;20639;-63
2022/09/23 07:11:12;;;;;;;4.40;3.60;;;12.40;99.90;;;;;;6308849;22;20395;-62
2022/09/23 07:13:41;;;;;;;4.77;3.40;;;12.80;99.90;;;;;;6309594;22;20861;-63
2022/09/23 07:16:10;;;;;;;4.27;3.50;;;12.90;99.90;;;;;;6307009;22;20852;-63
2022/09/23 07:18:40;;;;;;;4.60;3.17;;;13.20;99.90;;;;;;6307147;22;20448;-63
2022/09/23 07:21:10;;;;;;;3.97;3.57;;;13.40;99.90;;;;;;6307797;22;20420;-64
2022/09/23 07:23:40;;;;;;;3.20;2.90;;;13.70;99.90;;;;;;6309332;22;20692;-64
2022/09/23 07:26:07;;;;;;;4.40;3.90;;;14.10;99.90;;;;;;6309218;22;20447;-64
2022/09/23 07:28:37;;;;;;;5.40;3.70;;;14.60;99.90;;;;;;6309632;22;20444;-63
2022/09/23 07:31:16;;;;;;;3.70;3.13;;;14.90;99.90;;;;;;6310576;22;20450;-63
2022/09/23 07:33:43;;;;;;;4.93;3.10;;;15.20;99.90;;;;;;6309561;22;20890;-63
2022/09/23 07:36:13;;;;;;;4.00;3.60;;;15.60;99.90;;;;;;6309182;22;20787;-63
2022/09/23 07:38:42;;;;;;;3.60;3.30;;;15.90;99.90;;;;;;6310525;22;20418;-64
2022/09/23 07:41:12;;;;;;;3.43;3.00;;;15.80;99.90;;;;;;6309185;22;20460;-64
2022/09/23 07:43:40;;;;;;;4.40;3.17;;;15.90;99.90;;;;;;6309959;22;20842;-64
2022/09/23 07:46:09;;;;;;;3.77;3.37;;;16.20;99.90;;;;;;6310171;22;20454;-64
2022/09/23 07:48:38;;;;;;;3.70;3.40;;;16.60;99.90;;;;;;6310239;22;20517;-64
2022/09/23 07:51:09;;;;;;;5.00;3.37;;;16.60;99.90;;;;;;6310790;22;20416;-63
2022/09/23 07:53:36;;;;;;;4.17;3.17;;;16.60;99.90;;;;;;6310593;22;20869;-63
2022/09/23 07:56:06;;;;;;;6.13;3.07;;;16.50;99.90;;;;;;6312972;22;20459;-63
2022/09/23 07:58:36;;;;;;;4.13;3.83;;;16.50;99.90;;;;;;6314714;22;20412;-63
2022/09/23 08:01:05;;;;;;;6.50;3.40;;;16.40;99.90;;;;;;6312302;22;20414;-63
2022/09/23 08:03:32;;;;;;;6.87;3.77;;;16.20;99.90;;;;;;6312342;22;20758;-64
2022/09/23 08:06:07;;;;;;;3.27;2.97;;;16.10;99.90;;;;;;6311115;22;20420;-63
2022/09/23 08:08:42;;;;;;;3.20;2.90;;;16.10;99.90;;;;;;6312316;22;20479;-63
2022/09/23 08:11:13;;;;;;;5.07;3.50;;;16.10;99.90;;;;;;6313333;22;20419;-62
2022/09/23 08:13:40;;;;;;;3.70;3.33;;;16.10;99.90;;;;;;6313810;22;20437;-62
2022/09/23 08:16:08;;;;;;;8.20;3.00;;;16.10;99.90;;;;;;6312075;22;20853;-62
2022/09/23 08:18:35;;;;;;;5.03;2.90;;;16.10;99.90;;;;;;6310916;22;20448;-63
2022/09/23 08:21:03;;;;;;;5.87;3.80;;;16.20;99.90;;;;;;6312336;22;20518;-63
2022/09/23 08:23:32;;;;;;;4.33;3.70;;;16.30;99.90;;;;;;6312917;22;20440;-63
2022/09/23 08:26:01;;;;;;;4.60;3.47;;;16.30;99.90;;;;;;6313228;22;20415;-63
2022/09/23 08:28:30;;;;;;;3.30;3.00;;;16.30;99.90;;;;;;6313374;22;20928;-63
2022/09/23 08:30:58;;;;;;;3.93;3.43;;;16.10;99.90;;;;;;6312436;22;20458;-63
2022/09/23 08:33:26;;;;;;;5.50;3.50;;;16.20;99.90;;;;;;6312834;22;20511;-63
2022/09/23 08:36:02;;;;;;;4.27;3.40;;;16.30;99.90;;;;;;6310847;22;20515;-63
2022/09/23 08:38:32;;;;;;;4.60;3.73;;;16.40;99.90;;;;;;6310661;22;20411;-63
2022/09/23 08:41:07;;;;;;;4.13;3.10;;;16.60;99.90;;;;;;6310973;22;20463;-64
2022/09/23 08:43:38;;;;;;;3.30;3.00;;;17.00;99.90;;;;;;6310761;22;20448;-63
2022/09/23 08:46:10;;;;;;;3.47;3.17;;;17.30;99.90;;;;;;6311499;22;20431;-63
2022/09/23 08:48:42;;;;;;;3.40;3.10;;;17.50;99.90;;;;;;6311271;22;20456;-64
2022/09/23 08:51:14;;;;;;;3.20;2.90;;;17.70;99.90;;;;;;6312869;22;20881;-64
2022/09/23 08:53:42;;;;;;;3.20;2.70;;;17.90;99.90;;;;;;6311628;22;20729;-64
2022/09/23 08:56:14;;;;;;;3.60;3.30;;;18.00;99.90;;;;;;6312455;22;20724;-64
2022/09/23 08:59:03;;;;;;;4.23;3.57;;;18.10;99.90;;;;;;6311395;22;20537;-64
2022/09/23 09:01:39;;;;;;;3.30;3.00;;;18.30;99.90;;;;;;6311380;22;20791;-64
2022/09/23 09:04:18;;;;;;;5.57;3.60;;;18.30;99.90;;;;;;6311564;22;20706;-64
2022/09/23 09:06:54;;;;;;;3.20;2.80;;;18.40;99.90;;;;;;6310627;22;20485;-64
2022/09/23 09:09:28;;;;;;;3.67;3.37;;;18.50;99.90;;;;;;6309981;22;20447;-63
2022/09/23 09:12:18;;;;;;;3.20;2.90;;;18.70;99.90;;;;;;6311379;22;20878;-64
2022/09/23 09:14:54;;;;;;;3.90;2.90;;;18.90;99.90;;;;;;6310525;22;20423;-64
2022/09/23 09:17:33;;;;;;;3.77;3.47;;;18.90;99.90;;;;;;6311048;22;20426;-64
2022/09/23 09:20:07;;;;;;;3.80;3.40;;;19.10;99.90;;;;;;6311285;22;20466;-64
2022/09/23 09:22:46;;;;;;;9.23;3.53;;;19.10;99.90;;;;;;6311868;22;20481;-64
2022/09/23 09:25:38;;;;;;;3.50;3.20;;;19.10;99.90;;;;;;6310435;22;20416;-64
2022/09/23 09:28:17;;;;;;;3.97;3.67;;;19.00;99.90;;;;;;6310640;22;20488;-63
2022/09/23 09:30:52;;;;;;;3.07;2.77;;;18.80;99.90;;;;;;6311561;22;20786;-69
2022/09/23 09:33:24;;;;;;;4.53;2.87;;;18.60;99.90;;;;;;6312598;22;20448;-63
2022/09/23 09:36:09;;;;;;;4.77;2.60;;;18.60;99.90;;;;;;6311798;22;21012;-63
2022/09/23 09:38:36;;;;;;;3.53;3.23;;;18.50;99.90;;;;;;6312303;22;20416;-63
2022/09/23 09:41:13;;;;;;;3.73;3.20;;;18.50;99.90;;;;;;6310145;22;20490;-64
2022/09/23 09:43:43;;;;;;;4.80;3.30;;;18.60;99.90;;;;;;6310505;22;20418;-63
2022/09/23 09:46:28;;;;;;;3.30;3.00;;;18.50;99.90;;;;;;6311040;22;20865;-63
2022/09/23 09:49:00;;;;;;;3.70;3.40;;;18.60;99.90;;;;;;6311643;22;20447;-63
2022/09/23 09:51:28;;;;;;;4.10;3.70;;;18.70;99.90;;;;;;6310132;22;20520;-63
2022/09/23 09:54:16;;;;;;;3.67;3.37;;;18.70;99.90;;;;;;6310555;22;20510;-63
2022/09/23 09:56:44;;;;;;;3.93;3.47;;;18.70;99.90;;;;;;6311784;22;20446;-64
2022/09/23 09:59:17;;;;;;;4.60;3.50;;;18.60;99.90;;;;;;6311565;22;20412;-63
2022/09/23 10:01:48;;;;;;;3.20;2.90;;;18.50;99.90;;;;;;6312202;22;20725;-64
2022/09/23 10:04:23;;;;;;;3.23;2.60;;;18.60;99.90;;;;;;6311537;22;20416;-64
2022/09/23 10:07:09;;;;;;;4.83;3.17;;;18.80;99.90;;;;;;6312457;22;20412;-64
2022/09/23 10:09:38;;;;;;;4.13;2.93;;;18.90;99.90;;;;;;6309392;22;20455;-63
2022/09/23 10:12:18;;;;;;;4.90;2.70;;;18.80;99.90;;;;;;6310409;22;20522;-63
2022/09/23 10:14:50;;;;;;;3.03;2.80;;;18.70;99.90;;;;;;6310472;22;20459;-64
2022/09/23 10:17:22;;;;;;;3.70;3.20;;;18.60;99.90;;;;;;6311947;22;20416;-64
2022/09/23 10:19:54;;;;;;;2.83;2.63;;;18.80;99.90;;;;;;6311087;22;20419;-64
2022/09/23 10:22:26;;;;;;;3.30;3.00;;;18.90;99.90;;;;;;6310931;22;20527;-64
2022/09/23 10:24:54;;;;;;;3.50;3.10;;;19.10;99.90;;;;;;6311242;22;20416;-65
2022/09/23 10:27:33;;;;;;;2.80;2.60;;;19.20;99.90;;;;;;6310398;22;20416;-64
2022/09/23 10:30:05;;;;;;;4.00;3.70;;;19.50;99.90;;;;;;6280747;22;20799;-64
2022/09/23 10:32:36;;;;;;;4.47;3.00;;;19.70;99.90;;;;;;6309239;22;20447;-64
2022/09/23 10:35:16;;;;;;;3.33;3.03;;;19.80;99.90;;;;;;6310191;22;20420;-64
2022/09/23 10:37:47;;;;;;;4.07;2.80;;;20.20;99.90;;;;;;6310362;22;20416;-65
2022/09/23 10:49:42;;;;;;;4.43;3.03;;;21.00;99.90;;;;;;6310116;22;20439;-64
2022/09/23 10:52:24;;;;;;;4.73;3.07;;;21.10;99.90;;;;;;6215390;23;20425;-64
2022/09/23 10:55:04;;;;;;;3.60;3.30;;;21.40;99.90;;;;;;6216050;23;20496;-64
2022/09/23 10:57:43;;;;;;;3.60;2.60;;;21.20;99.90;;;;;;6215326;23;20895;-64
2022/09/23 11:00:24;;;;;;;3.33;2.80;;;20.90;99.90;;;;;;6259756;22;20455;-64
2022/09/23 11:03:34;;;;;;;3.63;3.20;;;21.00;99.90;;;;;;6309644;22;20775;-65
2022/09/23 11:06:16;;;;;;;5.00;3.50;;;21.50;99.90;;;;;;6214724;23;20910;-64
2022/09/23 11:08:58;;;;;;;5.13;2.93;;;21.40;99.90;;;;;;6215497;23;20421;-64
2022/09/23 11:11:40;;;;;;;3.40;3.10;;;21.30;99.90;;;;;;6277033;22;20423;-65
2022/09/23 11:14:23;;;;;;;2.83;2.63;;;21.40;99.90;;;;;;6309295;22;20786;-64
2022/09/23 11:17:06;;;;;;;3.30;2.93;;;21.60;99.90;;;;;;6311020;22;20416;-64
2022/09/23 11:20:14;;;;;;;3.77;2.90;;;21.70;99.90;;;;;;6310546;22;20447;-64
2022/09/23 11:23:08;;;;;;;2.77;2.57;;;22.10;99.90;;;;;;6309774;22;20390;-64
2022/09/23 11:25:46;;;;;;;3.20;2.87;;;22.30;99.90;;;;;;6310341;22;20427;-64
2022/09/23 11:28:44;;;;;;;2.73;2.53;;;22.50;99.90;;;;;;6309930;22;20499;-64
2022/09/23 11:31:24;;;;;;;2.87;2.67;;;22.50;99.90;;;;;;6301980;22;20517;-64
2022/09/23 11:34:01;;;;;;;3.00;2.70;;;22.80;99.90;;;;;;6309478;22;20387;-65
2022/09/23 11:36:37;;;;;;;2.87;2.67;;;23.10;99.90;;;;;;6310002;22;20421;-64
2022/09/23 11:39:14;;;;;;;2.83;2.63;;;23.20;99.90;;;;;;6310606;22;20518;-64
2022/09/23 11:41:46;;;;;;;2.80;2.60;;;23.10;99.90;;;;;;6309904;22;20471;-65
2022/09/23 11:44:19;;;;;;;6.87;2.20;;;23.20;99.90;;;;;;6310707;22;20469;-65
2022/09/23 11:46:52;;;;;;;3.50;2.30;;;22.80;99.90;;;;;;6310442;22;20718;-64
2022/09/23 11:49:28;;;;;;;3.57;2.50;;;23.30;99.90;;;;;;6310109;22;20505;-64
2022/09/23 11:52:05;;;;;;;3.40;2.93;;;23.60;99.90;;;;;;6309249;22;20420;-65
2022/09/23 11:54:40;;;;;;;3.20;2.90;;;23.90;99.90;;;;;;6309922;22;20394;-65
2022/09/23 11:57:17;;;;;;;2.83;2.63;;;23.90;99.90;;;;;;6308840;22;20849;-64
2022/09/23 11:59:50;;;;;;;2.80;2.60;;;24.30;99.90;;;;;;6309273;22;20412;-64
2022/09/23 12:02:26;;;;;;;3.43;2.80;;;24.20;99.90;;;;;;6308580;22;20489;-65
2022/09/23 12:05:02;;;;;;;3.70;2.57;;;24.20;99.90;;;;;;6310476;22;20458;-64
2022/09/23 12:07:40;;;;;;;2.90;2.70;;;23.90;99.90;;;;;;6309529;22;20415;-63
2022/09/23 12:10:13;;;;;;;2.50;2.07;;;23.50;99.90;;;;;;6309755;22;20916;-63
2022/09/23 12:12:47;;;;;;;2.53;2.33;;;23.20;99.90;;;;;;6310031;22;20417;-64
2022/09/23 12:15:38;;;;;;;2.40;2.20;;;22.90;99.90;;;;;;6305853;22;20834;-64
2022/09/23 12:18:41;;;;;;;2.47;2.27;;;22.60;99.90;;;;;;6307760;22;20736;-64
2022/09/23 12:21:23;;;;;;;2.60;2.37;;;22.60;99.90;;;;;;6293561;22;20428;-64
2022/09/23 12:24:12;;;;;;;2.40;2.20;;;22.40;99.90;;;;;;6308850;22;20425;-63
2022/09/23 12:26:45;;;;;;;2.63;2.43;;;22.60;99.90;;;;;;6309868;22;20416;-64
2022/09/23 12:29:14;;;;;;;2.77;2.57;;;22.80;99.90;;;;;;6309381;22;20423;-64
2022/09/23 12:31:43;;;;;;;3.40;2.30;;;22.90;99.90;;;;;;6309260;22;20487;-64
2022/09/23 12:34:23;;;;;;;2.73;2.53;;;22.60;99.90;;;;;;6309067;22;20452;-63
2022/09/23 12:36:50;;;;;;;3.30;2.30;;;22.10;99.90;;;;;;6309466;22;20518;-63
2022/09/23 12:39:26;;;;;;;8.47;2.50;;;21.80;99.90;;;;;;6308968;22;20463;-64
2022/09/23 12:42:02;;;;;;;2.33;2.13;;;21.40;99.90;;;;;;6308131;22;20510;-63
2022/09/23 12:44:34;;;;;;;2.57;2.20;;;21.40;99.90;;;;;;6309313;22;20518;-63
2022/09/23 12:47:39;;;;;;;2.77;2.57;;;21.00;99.90;;;;;;6309320;22;20427;-64
2022/09/23 12:50:58;;;;;;;2.90;2.70;;;20.70;99.90;;;;;;6308679;22;20444;-63
2022/09/23 12:53:59;;;;;;;3.10;2.87;;;20.70;99.90;;;;;;6214792;23;20398;-64
2022/09/23 12:56:29;;;;;;;2.60;2.40;;;20.80;99.90;;;;;;6311470;22;20421;-63
2022/09/23 12:59:25;;;;;;;3.60;2.70;;;20.80;99.90;;;;;;6310004;22;20387;-63
2022/09/23 13:01:53;;;;;;;2.80;2.60;;;21.00;99.90;;;;;;6308385;22;20514;-64
2022/09/23 13:07:24;;;;;;;3.50;2.50;;;20.80;99.90;;;;;;6309701;22;20399;-63
2022/09/23 13:09:58;;;;;;;3.10;2.70;;;20.60;99.90;;;;;;6310767;22;20542;-63
2022/09/23 13:12:31;;;;;;;2.50;2.30;;;20.40;99.90;;;;;;6309969;22;20508;-63
2022/09/23 13:15:05;;;;;;;3.40;2.67;;;19.80;99.90;;;;;;6308465;22;20443;-63
2022/09/23 13:17:38;;;;;;;2.67;2.10;;;19.80;99.90;;;;;;6309058;22;20424;-64
2022/09/23 13:20:32;;;;;;;3.40;2.90;;;19.80;99.90;;;;;;6310525;22;20416;-63
2022/09/23 13:23:20;;;;;;;4.83;2.73;;;19.90;99.90;;;;;;6309987;22;20450;-63
2022/09/23 13:25:51;;;;;;;3.17;2.87;;;19.60;99.90;;;;;;6310561;22;20444;-63
2022/09/23 13:28:33;;;;;;;1.90;1.70;;;19.40;99.90;;;;;;6309325;22;20412;-63
2022/09/23 13:31:08;;;;;;;4.10;2.57;;;19.30;99.90;;;;;;6308615;22;20482;-63
2022/09/23 13:33:42;;;;;;;4.07;2.47;;;19.10;99.90;;;;;;6309130;22;20416;-63
2022/09/23 13:36:14;;;;;;;2.40;2.20;;;18.90;99.90;;;;;;6310336;22;20416;-63
2022/09/23 13:38:42;;;;;;;4.40;2.80;;;19.10;99.90;;;;;;6310869;22;20518;-63